Warning: Javascript must be enabled to use all the features on this page!


Page Loading - Please Wait...

Click to hideNews Bulletins

Peak Streamflow for the Nation

USGS 10349980 STEAMBOAT CK AT CLEANWATER WAY NR RENO, NV

Washoe County, Nevada
Hydrologic Unit Code 16050102
Latitude  39°30'47", Longitude 119°42'41" NAD27
Drainage area 244  square miles
Gage datum 4,375.00 feet above NGVD29
Output formats
Table
Graph
Tab-separated file
peakfq (watstore) format
Reselect output format
Water
Year
Date Gage
Height
(feet)
Stream-
flow
(cfs)
1993 1993-01-22 9.16 6335
1994 1994-05-07 6.58 1855
1995 1995-03-10 13.09 1,5905
1996 1995-12-12 9.49 6615
1998 1998-03-24 12.50 5065
1999 1999-02-09   3201,2,5
2000 2000-02-14 6.99 2375
2001 2000-11-29 5.59 1185
2002 2001-12-02 7.86 3695
2003 2002-12-16 7.92 3815
2004 2004-02-25 7.15 2745
2005 2005-05-19 7.70 3345
2006 2005-12-31 20.38 3,8705
2007 2007-02-11 6.27 1755
2008 2008-01-04 10.63 9525
2009 2009-03-03 7.29 3175
2010 2009-10-13 8.53 5165
2011 2010-12-19 8.24 4665
2012 2012-01-21 6.98 2745
2013 2012-12-02 8.74 5545
2014 2014-07-20 6.47 1575
2015 2015-02-09 6.96 2815
2016 2016-01-30 6.34 1915
2017 2017-01-09 16.521,2 1,2702,5
2018 2018-03-22 11.341 8252,5
2019 2019-02-14 12.79 1,7602,5
2020 2019-12-08 7.50 3505
2021 2021-01-28 5.63 1155
?
  Peak Gage-Height Qualification Codes.
?
  Peak Streamflow Qualification Codes.